Time;durP1;ratioP1;P1;durP2;ratioP2;P2;SDS_P1;SDS_P2;PMS_P1;PMS_P2;Temp;Humidity;BMP_temperature;BMP_pressure;BME280_temperature;BME280_humidity;BME280_pressure;Samples;Min_cycle;Max_cycle;Signal;HPM_P1;HPM_P2
2023/09/15 00:00:56;;;;;;;6.87;2.80;;;;;;;21.33;59.17;99821.28;5069106;28;20529;-79
2023/09/15 00:03:22;;;;;;;7.55;2.70;;;;;;;21.33;59.21;99824.84;5070856;28;20099;-79
2023/09/15 00:05:47;;;;;;;5.88;2.47;;;;;;;21.33;59.22;99823.97;5072706;28;20385;-78
2023/09/15 00:08:16;;;;;;;6.73;2.80;;;;;;;21.31;59.40;99828.56;5072691;28;20028;-77
2023/09/15 00:10:42;;;;;;;7.90;2.88;;;;;;;21.22;59.78;99824.59;5062703;28;20464;-77
2023/09/15 00:13:08;;;;;;;9.17;3.37;;;;;;;21.09;59.98;99827.06;5052760;28;20040;-78
2023/09/15 00:15:34;;;;;;;9.10;3.20;;;;;;;20.95;60.71;99825.16;5067054;28;20815;-77
2023/09/15 00:18:00;;;;;;;8.85;3.28;;;;;;;20.89;60.91;99821.03;5072844;28;20055;-78
2023/09/15 00:20:25;;;;;;;6.43;3.00;;;;;;;20.82;61.05;99819.59;5072577;28;20016;-78
2023/09/15 00:22:52;;;;;;;8.20;3.27;;;;;;;20.76;61.05;99814.56;5072482;28;20139;-78
2023/09/15 00:25:29;;;;;;;7.00;3.22;;;;;;;20.68;62.13;99817.63;5071271;28;20017;-78
2023/09/15 00:27:58;;;;;;;8.80;3.10;;;;;;;20.62;61.88;99813.50;5052678;28;20036;-78
2023/09/15 00:30:24;;;;;;;10.35;2.97;;;;;;;20.60;61.64;99810.00;5052037;28;20111;-77
2023/09/15 00:32:50;;;;;;;7.07;3.13;;;;;;;20.62;61.39;99802.81;5034222;28;20060;-78
2023/09/15 00:35:22;;;;;;;8.98;3.00;;;;;;;20.65;61.51;99802.63;5052194;28;20031;-78
2023/09/15 00:37:49;;;;;;;8.55;3.10;;;;;;;20.64;61.65;99800.03;5052507;28;20048;-78
2023/09/15 00:40:16;;;;;;;8.50;2.70;;;;;;;20.65;61.52;99802.63;5052311;28;20430;-79
2023/09/15 00:42:43;;;;;;;6.80;2.70;;;;;;;20.68;61.29;99801.59;5052607;28;20029;-79
2023/09/15 00:45:14;;;;;;;8.43;3.30;;;;;;;20.71;61.49;99805.91;5053469;28;20032;-78
2023/09/15 00:47:40;;;;;;;6.75;2.75;;;;;;;20.71;61.40;99805.91;5052444;28;20037;-77
2023/09/15 00:50:06;;;;;;;7.13;3.05;;;;;;;20.70;61.51;99802.34;5051894;28;20061;-77
2023/09/15 00:52:33;;;;;;;5.60;2.85;;;;;;;20.68;61.27;99800.72;5058261;28;20048;-77
2023/09/15 00:55:00;;;;;;;6.80;3.20;;;;;;;20.64;61.45;99795.56;5072118;28;20252;-78
2023/09/15 00:57:26;;;;;;;8.30;2.95;;;;;;;20.62;61.28;99797.44;5053296;28;20025;-77
2023/09/15 00:59:53;;;;;;;7.63;2.80;;;;;;;20.64;61.66;99790.19;5033834;28;20037;-78
2023/09/15 01:02:19;;;;;;;8.15;2.70;;;;;;;20.65;61.79;99781.22;5051876;28;20040;-78
2023/09/15 01:04:45;;;;;;;6.10;2.50;;;;;;;20.67;61.68;99785.63;5051742;28;20116;-78
2023/09/15 01:07:12;;;;;;;6.17;2.77;;;;;;;20.61;61.74;99774.28;5051525;28;20104;-78
2023/09/15 01:09:39;;;;;;;6.25;2.83;;;;;;;20.55;61.55;99771.09;5052336;28;20025;-78
2023/09/15 01:12:06;;;;;;;5.50;2.70;;;;;;;20.51;61.53;99765.91;5072156;28;20077;-77
2023/09/15 01:14:31;;;;;;;7.07;2.58;;;;;;;20.50;62.27;99760.63;5065328;28;20036;-78
2023/09/15 01:17:13;;;;;;;6.67;2.73;;;;;;;20.50;62.08;99761.53;5051480;28;20033;-77
2023/09/15 01:20:00;;;;;;;7.57;2.70;;;;;;;20.48;62.35;99763.38;5033484;28;20036;-77
2023/09/15 01:23:00;;;;;;;6.45;2.92;;;;;;;20.45;62.00;99758.22;5051537;28;20032;-77
2023/09/15 01:25:44;;;;;;;7.23;2.93;;;;;;;20.43;61.70;99745.88;5051337;28;20017;-78
2023/09/15 01:28:42;;;;;;;5.53;2.40;;;;;;;20.34;62.37;99750.75;5051161;28;20029;-78
2023/09/15 01:31:09;;;;;;;5.97;2.80;;;;;;;20.31;61.86;99756.28;5025782;28;20169;-77
2023/09/15 01:33:36;;;;;;;6.75;2.55;;;;;;;20.30;62.16;99746.53;5051382;28;20290;-77
2023/09/15 01:36:01;;;;;;;6.20;2.85;;;;;;;20.29;62.32;99758.16;5051474;28;20100;-77
2023/09/15 01:38:26;;;;;;;7.73;2.73;;;;;;;20.28;61.95;99751.09;5051318;28;20473;-78
2023/09/15 01:40:52;;;;;;;7.27;2.67;;;;;;;20.26;62.46;99750.31;5052494;28;20076;-77
2023/09/15 01:43:17;;;;;;;7.50;2.37;;;;;;;20.25;62.20;99756.59;5050870;28;20025;-78
2023/09/15 01:45:42;;;;;;;10.40;2.50;;;;;;;20.24;62.51;99754.88;5050825;28;20021;-77
2023/09/15 01:48:10;;;;;;;6.43;2.80;;;;;;;20.23;62.40;99754.00;5051843;28;20488;-78
2023/09/15 01:50:36;;;;;;;8.23;3.03;;;;;;;20.22;61.98;99752.28;5070747;28;20032;-77
2023/09/15 01:53:03;;;;;;;6.97;2.70;;;;;;;20.19;62.24;99757.78;5071339;28;20039;-77
2023/09/15 01:55:30;;;;;;;10.27;2.83;;;;;;;20.20;62.09;99748.81;5068359;28;20024;-77
2023/09/15 01:57:55;;;;;;;8.70;2.97;;;;;;;20.14;62.48;99741.13;5050626;28;20048;-78
2023/09/15 02:00:21;;;;;;;8.98;2.53;;;;;;;20.13;62.47;99735.84;5051062;28;20057;-77
2023/09/15 02:02:46;;;;;;;6.27;2.73;;;;;;;20.09;62.38;99737.84;5050413;28;20031;-77
2023/09/15 02:05:23;;;;;;;6.43;2.60;;;;;;;20.00;62.77;99747.19;5050429;28;20492;-77
2023/09/15 02:07:48;;;;;;;7.90;2.95;;;;;;;19.90;62.67;99749.44;5050643;28;20020;-77
2023/09/15 02:10:14;;;;;;;5.97;2.60;;;;;;;19.82;63.26;99740.09;5056327;28;20749;-77
2023/09/15 02:12:39;;;;;;;6.53;3.00;;;;;;;19.80;63.05;99740.19;5070284;28;20270;-78
2023/09/15 02:15:05;;;;;;;6.67;2.40;;;;;;;19.77;63.54;99729.63;5059563;28;20021;-78
2023/09/15 02:17:31;;;;;;;9.57;3.22;;;;;;;19.78;63.56;99734.06;5050318;28;20481;-77
2023/09/15 02:19:56;;;;;;;6.47;2.90;;;;;;;19.75;63.24;99732.38;5050152;28;20029;-77
2023/09/15 02:22:22;;;;;;;6.03;2.60;;;;;;;19.72;63.81;99735.22;5050381;28;20021;-77
2023/09/15 02:24:47;;;;;;;8.77;2.87;;;;;;;19.72;63.22;99732.56;5050204;28;20389;-77
2023/09/15 02:27:13;;;;;;;6.23;2.90;;;;;;;19.71;63.60;99736.16;5049453;28;20260;-76
2023/09/15 02:29:38;;;;;;;5.70;2.87;;;;;;;19.71;63.40;99729.94;5050087;28;20035;-77
2023/09/15 02:32:04;;;;;;;7.77;3.27;;;;;;;19.67;63.86;99729.25;5050242;28;20068;-77
2023/09/15 02:34:30;;;;;;;8.77;3.00;;;;;;;19.60;63.84;99733.16;5050142;28;20320;-77
2023/09/15 02:36:55;;;;;;;10.65;3.30;;;;;;;19.52;64.22;99730.84;5051417;28;20025;-76
2023/09/15 02:39:21;;;;;;;7.00;2.83;;;;;;;19.51;64.19;99729.13;5049811;28;20033;-77
2023/09/15 02:41:47;;;;;;;6.83;3.10;;;;;;;19.50;64.33;99728.28;5049787;28;20127;-77
2023/09/15 02:44:13;;;;;;;8.95;2.88;;;;;;;19.48;64.29;99724.81;5049596;28;20025;-77
2023/09/15 02:46:38;;;;;;;6.93;2.90;;;;;;;19.45;64.22;99724.09;5069622;28;20037;-77
2023/09/15 02:49:04;;;;;;;7.23;2.87;;;;;;;19.42;64.17;99724.25;5069676;28;20480;-77
2023/09/15 02:51:29;;;;;;;6.30;2.83;;;;;;;19.37;64.36;99735.16;5069534;28;20081;-78
2023/09/15 02:53:55;;;;;;;8.97;3.30;;;;;;;19.30;64.86;99733.75;5069666;28;20032;-77
2023/09/15 02:56:22;;;;;;;7.10;2.90;;;;;;;19.26;64.95;99718.81;5059967;28;20090;-77
2023/09/15 02:58:48;;;;;;;7.50;3.00;;;;;;;19.23;65.17;99719.81;5049200;28;20040;-78
2023/09/15 03:01:15;;;;;;;6.37;2.77;;;;;;;19.18;65.32;99724.53;5049583;28;20033;-78
2023/09/15 03:03:40;;;;;;;6.45;2.60;;;;;;;19.13;65.42;99727.41;5049512;28;20357;-77
2023/09/15 03:06:07;;;;;;;7.13;2.67;;;;;;;19.12;65.48;99714.16;5049562;28;20086;-77
2023/09/15 03:08:33;;;;;;;6.35;3.10;;;;;;;19.13;65.58;99708.72;5049920;28;20040;-77
2023/09/15 03:10:59;;;;;;;7.30;2.63;;;;;;;19.18;65.43;99712.06;5061522;28;20037;-77
2023/09/15 03:13:25;;;;;;;6.77;2.63;;;;;;;19.19;65.20;99707.56;5051207;28;20031;-77
2023/09/15 03:15:50;;;;;;;8.63;2.85;;;;;;;19.20;65.19;99711.97;5052581;28;20640;-78
2023/09/15 03:18:15;;;;;;;8.10;2.70;;;;;;;19.15;65.29;99709.53;5049185;28;20488;-79
2023/09/15 03:20:41;;;;;;;8.17;2.37;;;;;;;19.16;65.19;99708.56;5049310;28;20060;-77
2023/09/15 03:23:07;;;;;;;8.20;2.80;;;;;;;19.16;65.08;99703.25;5049354;28;20029;-77
2023/09/15 03:25:32;;;;;;;8.00;2.78;;;;;;;19.13;65.26;99695.38;5049086;28;20076;-77
2023/09/15 03:27:57;;;;;;;7.63;2.60;;;;;;;19.14;65.41;99691.78;5049468;28;20041;-77
2023/09/15 03:30:23;;;;;;;7.20;2.50;;;;;;;19.17;65.05;99690.78;5048908;28;20080;-78
2023/09/15 03:32:48;;;;;;;7.80;2.47;;;;;;;19.21;64.96;99689.69;5048121;28;20059;-76
2023/09/15 03:35:14;;;;;;;5.10;2.50;;;;;;;19.21;64.86;99679.88;5048353;28;20066;-78
2023/09/15 03:37:39;;;;;;;7.40;2.80;;;;;;;19.21;64.75;99676.34;5048773;28;20484;-77
2023/09/15 03:40:08;;;;;;;6.90;3.00;;;;;;;19.24;64.93;99675.31;5051942;28;20491;-77
2023/09/15 03:42:34;;;;;;;5.53;2.63;;;;;;;19.22;64.89;99681.59;5068986;28;20375;-76
2023/09/15 03:44:59;;;;;;;6.55;2.60;;;;;;;19.21;64.95;99673.66;5071829;28;20124;-76
2023/09/15 03:47:25;;;;;;;6.83;2.70;;;;;;;19.21;64.72;99673.66;5071731;28;20036;-77
2023/09/15 03:49:51;;;;;;;6.87;2.43;;;;;;;19.18;64.61;99672.03;5071641;28;20492;-76
2023/09/15 03:52:17;;;;;;;6.95;2.80;;;;;;;19.16;64.84;99675.69;5071580;28;20028;-76
2023/09/15 03:54:42;;;;;;;6.80;2.80;;;;;;;19.12;65.10;99674.13;5071540;28;20021;-77
2023/09/15 03:57:07;;;;;;;7.88;2.72;;;;;;;19.02;64.92;99676.38;5055506;28;20587;-77
2023/09/15 03:59:34;;;;;;;5.80;2.60;;;;;;;18.93;65.17;99680.31;5051702;28;20037;-77
2023/09/15 04:02:00;;;;;;;7.85;2.78;;;;;;;18.92;65.52;99676.78;5051518;28;20079;-76
2023/09/15 04:04:25;;;;;;;5.60;2.40;;;;;;;18.92;65.31;99675.94;5051914;28;20496;-76
2023/09/15 04:06:51;;;;;;;7.90;3.00;;;;;;;18.91;64.98;99683.06;5051661;28;20082;-76
2023/09/15 04:09:19;;;;;;;8.80;2.90;;;;;;;18.84;65.53;99678.97;5051366;28;20033;-76
2023/09/15 04:11:44;;;;;;;9.23;2.67;;;;;;;18.82;65.45;99677.31;5069564;28;20040;-77
2023/09/15 04:14:10;;;;;;;7.50;2.30;;;;;;;18.83;65.31;99674.56;5068534;28;20025;-77
2023/09/15 04:16:37;;;;;;;8.17;2.47;;;;;;;18.85;65.50;99670.00;5051431;28;20397;-76
2023/09/15 04:19:03;;;;;;;6.90;2.70;;;;;;;18.85;65.16;99666.50;5051552;28;20033;-78
2023/09/15 04:21:28;;;;;;;6.45;2.40;;;;;;;18.83;65.15;99668.38;5051562;28;20037;-77
2023/09/15 04:23:54;;;;;;;6.33;2.50;;;;;;;18.80;65.21;99664.03;5051290;28;20385;-76
2023/09/15 04:26:20;;;;;;;6.80;2.67;;;;;;;18.79;65.34;99660.50;5051426;28;20083;-77
2023/09/15 04:28:46;;;;;;;5.45;2.70;;;;;;;18.80;65.18;99656.03;5051182;28;20033;-76
2023/09/15 04:31:11;;;;;;;8.27;3.00;;;;;;;18.79;65.51;99651.66;5013866;28;1125534;-76
2023/09/15 04:33:36;;;;;;;6.67;2.47;;;;;;;18.79;65.20;99649.84;5052256;28;20033;-80
2023/09/15 04:36:03;;;;;;;6.27;2.60;;;;;;;18.79;65.30;99646.31;5052382;28;20067;-77
2023/09/15 04:38:30;;;;;;;8.45;2.78;;;;;;;18.79;65.17;99646.31;5066510;28;20120;-76
2023/09/15 04:40:55;;;;;;;9.27;3.00;;;;;;;18.80;64.95;99635.56;5072272;28;20283;-77
2023/09/15 04:43:21;;;;;;;6.40;2.50;;;;;;;18.78;65.10;99647.25;5072320;28;20083;-76
2023/09/15 04:45:46;;;;;;;6.65;2.58;;;;;;;18.74;64.99;99646.53;5072457;28;20024;-76
2023/09/15 04:48:12;;;;;;;7.00;2.30;;;;;;;18.64;65.32;99645.25;5071402;28;20037;-77
2023/09/15 04:50:37;;;;;;;6.80;2.90;;;;;;;18.62;65.26;99652.47;5072018;28;20067;-76
2023/09/15 04:53:08;;;;;;;5.77;2.80;;;;;;;18.59;65.37;99645.47;5072221;28;20029;-76
2023/09/15 04:55:34;;;;;;;7.68;2.95;;;;;;;18.57;65.63;99647.34;5068882;28;20075;-76
2023/09/15 04:58:00;;;;;;;7.38;2.67;;;;;;;18.55;65.88;99645.66;5052067;28;20033;-76
2023/09/15 05:00:27;;;;;;;6.47;2.57;;;;;;;18.51;65.56;99639.63;5052503;28;20584;-76
2023/09/15 05:02:52;;;;;;;6.30;2.45;;;;;;;18.46;65.67;99639.84;5051670;28;20435;-75
2023/09/15 05:05:18;;;;;;;7.13;2.67;;;;;;;18.43;65.51;99639.09;5051824;28;20029;-76
2023/09/15 05:07:43;;;;;;;6.78;2.60;;;;;;;18.43;65.61;99639.09;5033964;28;20049;-75
2023/09/15 05:10:09;;;;;;;5.90;2.77;;;;;;;18.40;65.75;99640.13;5057018;28;20082;-76
2023/09/15 05:12:35;;;;;;;5.53;2.40;;;;;;;18.36;65.46;99641.22;5071732;28;20103;-76
2023/09/15 05:15:03;;;;;;;7.17;2.70;;;;;;;18.31;65.82;99641.44;5061706;28;20035;-79
2023/09/15 05:17:28;;;;;;;7.45;2.70;;;;;;;18.27;66.06;99645.19;5051632;28;20025;-78
2023/09/15 05:19:56;;;;;;;4.97;2.30;;;;;;;18.27;65.67;99645.19;5051452;28;20036;-78
2023/09/15 05:22:21;;;;;;;6.03;2.60;;;;;;;18.28;65.88;99646.03;5051606;28;20263;-76
2023/09/15 05:24:47;;;;;;;7.75;2.53;;;;;;;18.29;65.84;99635.31;5051386;28;20025;-76
2023/09/15 05:27:12;;;;;;;11.00;2.67;;;;;;;18.28;65.89;99641.56;5052502;28;20021;-76
2023/09/15 05:29:37;;;;;;;6.77;2.57;;;;;;;18.24;65.92;99637.31;5051551;28;20041;-77
2023/09/15 05:32:03;;;;;;;6.07;2.50;;;;;;;18.19;65.86;99637.53;5064972;28;20056;-76
2023/09/15 05:34:28;;;;;;;6.35;2.65;;;;;;;18.16;66.03;99650.13;5071403;28;20056;-81
2023/09/15 05:36:54;;;;;;;6.53;2.70;;;;;;;18.15;65.96;99657.25;5071273;28;20113;-77
2023/09/15 05:39:19;;;;;;;6.93;2.80;;;;;;;18.16;66.00;99652.78;5071380;28;20041;-76
2023/09/15 05:41:45;;;;;;;5.75;2.53;;;;;;;18.17;65.89;99650.06;5071094;28;20028;-76
2023/09/15 05:44:10;;;;;;;7.50;2.80;;;;;;;18.17;65.93;99644.72;5071077;28;20113;-78
2023/09/15 05:46:35;;;;;;;7.13;3.03;;;;;;;18.18;65.85;99653.56;5071138;28;20028;-77
2023/09/15 05:49:01;;;;;;;5.50;2.70;;;;;;;18.18;65.95;99657.13;5071079;28;20546;-76
2023/09/15 05:51:27;;;;;;;6.97;2.70;;;;;;;18.18;66.15;99658.91;5064908;28;20555;-79
2023/09/15 05:53:52;;;;;;;6.80;2.78;;;;;;;18.18;66.08;99661.56;5051077;28;20044;-76
2023/09/15 05:56:18;;;;;;;6.97;2.83;;;;;;;18.16;66.26;99668.78;5060214;28;20029;-76
2023/09/15 05:58:43;;;;;;;6.60;2.78;;;;;;;18.11;66.48;99681.44;5075240;28;20024;-77
2023/09/15 06:01:09;;;;;;;8.17;2.80;;;;;;;18.10;66.40;99685.03;5070034;28;20028;-75
2023/09/15 06:03:36;;;;;;;7.57;3.03;;;;;;;18.16;66.53;99690.97;5071270;28;20105;-74
2023/09/15 06:06:02;;;;;;;10.63;3.40;;;;;;;18.28;66.24;99686.88;5070595;28;20028;-84
2023/09/15 06:08:28;;;;;;;8.80;3.13;;;;;;;18.60;65.32;99684.53;5068498;28;20021;-76
2023/09/15 06:10:56;;;;;;;7.50;3.20;;;;;;;18.94;64.61;99685.59;5060485;28;20366;-78
2023/09/15 06:13:22;;;;;;;10.05;3.40;;;;;;;19.20;63.96;99682.59;5050609;28;20021;-75
2023/09/15 06:15:47;;;;;;;13.33;4.20;;;;;;;19.40;63.43;99684.28;5066223;28;20085;-75
2023/09/15 06:18:13;;;;;;;11.00;3.67;;;;;;;19.40;63.49;99678.94;5059029;28;20033;-76
2023/09/15 06:20:38;;;;;;;13.73;3.60;;;;;;;19.51;63.33;99681.94;5059485;28;20031;-75
2023/09/15 06:23:04;;;;;;;8.57;3.53;;;;;;;19.68;62.97;99688.25;5057760;28;20025;-75
2023/09/15 06:25:32;;;;;;;11.80;3.63;;;;;;;19.73;63.33;99680.84;5050766;28;20039;-75
2023/09/15 06:27:59;;;;;;;11.40;4.13;;;;;;;19.81;63.25;99672.44;5070326;28;20666;-76
2023/09/15 06:30:26;;;;;;;15.98;4.13;;;;;;;19.80;63.08;99676.06;5069803;28;20047;-77
2023/09/15 06:32:52;;;;;;;11.60;3.92;;;;;;;19.96;62.90;99669.91;5051205;28;20064;-80
2023/09/15 06:35:17;;;;;;;13.93;4.37;;;;;;;20.15;62.82;99665.34;5051937;28;20125;-78
2023/09/15 06:37:43;;;;;;;10.73;3.78;;;;;;;20.37;62.12;99664.16;5049873;28;20036;-77
2023/09/15 06:40:10;;;;;;;12.37;3.63;;;;;;;20.60;61.56;99660.22;5049850;28;20033;-79
2023/09/15 06:42:36;;;;;;;15.93;3.88;;;;;;;20.86;61.25;99649.91;5052382;28;20395;-77
2023/09/15 06:45:02;;;;;;;12.93;4.03;;;;;;;21.07;61.02;99646.94;5049242;28;20033;-79
2023/09/15 06:47:28;;;;;;;9.40;3.55;;;;;;;21.27;60.77;99639.56;5063023;28;20110;-78
2023/09/15 06:49:53;;;;;;;10.73;4.20;;;;;;;21.42;60.07;99645.81;5055009;28;20520;-80
2023/09/15 06:52:18;;;;;;;9.63;3.30;;;;;;;21.57;60.29;99644.91;5063268;28;20017;-82
2023/09/15 06:54:44;;;;;;;9.75;3.17;;;;;;;21.67;59.87;99639.03;5048647;28;20033;-82
2023/09/15 06:57:09;;;;;;;11.10;3.30;;;;;;;21.71;60.30;99636.06;5063827;28;20102;-81
2023/09/15 06:59:35;;;;;;;9.50;3.30;;;;;;;21.77;60.00;99630.31;5051363;28;20476;-82
2023/09/15 07:02:02;;;;;;;8.98;3.10;;;;;;;21.90;59.85;99618.88;5047005;28;20024;-79
2023/09/15 07:04:28;;;;;;;8.80;3.67;;;;;;;22.01;59.71;99618.19;5066228;28;20039;-80
2023/09/15 07:06:54;;;;;;;10.45;3.30;;;;;;;22.11;59.64;99611.28;5050766;28;20033;-80
2023/09/15 07:09:19;;;;;;;10.53;3.50;;;;;;;22.28;59.41;99612.06;5047421;28;20631;-80
2023/09/15 07:11:45;;;;;;;11.90;3.58;;;;;;;22.42;59.33;99619.22;5066777;28;20036;-82
2023/09/15 07:14:10;;;;;;;11.83;3.43;;;;;;;22.52;59.28;99615.00;5059347;28;20083;-82
2023/09/15 07:16:36;;;;;;;8.70;3.10;;;;;;;22.58;58.87;99609.25;5069453;28;20050;-83
2023/09/15 07:19:02;;;;;;;10.40;3.65;;;;;;;22.71;59.28;99614.69;5057444;28;20033;-82
2023/09/15 07:21:27;;;;;;;8.97;2.63;;;;;;;22.82;58.92;99611.31;5049054;28;20035;-82
2023/09/15 07:23:53;;;;;;;7.33;2.77;;;;;;;22.89;58.54;99601.00;5049472;28;20474;-82
2023/09/15 07:26:19;;;;;;;8.38;2.22;;;;;;;22.91;58.12;99607.16;5055589;28;20066;-82
2023/09/15 07:28:44;;;;;;;9.93;2.33;;;;;;;22.87;58.18;99606.47;5069473;28;20029;-82
2023/09/15 07:31:10;;;;;;;7.13;2.30;;;;;;;22.90;58.30;99605.41;5068829;28;20060;-82
2023/09/15 07:33:35;;;;;;;4.27;1.80;;;;;;;22.90;57.70;99597.34;5069072;28;20033;-82
2023/09/15 07:36:03;;;;;;;7.20;1.83;;;;;;;22.96;57.68;99598.78;5068912;28;20020;-83
2023/09/15 07:38:29;;;;;;;6.93;1.97;;;;;;;23.00;57.46;99602.97;5069127;28;20814;-83
2023/09/15 07:40:55;;;;;;;6.72;1.90;;;;;;;23.00;56.95;99605.66;5068747;28;20029;-82
2023/09/15 07:43:20;;;;;;;6.90;1.57;;;;;;;23.00;56.99;99619.06;5068999;28;20127;-80
2023/09/15 07:45:47;;;;;;;6.00;2.10;;;;;;;23.12;56.68;99618.28;5068713;28;20555;-82
2023/09/15 07:48:13;;;;;;;6.40;2.13;;;;;;;23.20;56.07;99620.44;5068495;28;20024;-80
2023/09/15 07:50:38;;;;;;;5.70;1.60;;;;;;;23.33;56.20;99620.50;5068264;28;20033;-82
2023/09/15 07:53:04;;;;;;;5.27;1.90;;;;;;;23.41;55.22;99618.16;5068451;28;20033;-82
2023/09/15 07:55:30;;;;;;;5.47;1.70;;;;;;;23.48;54.98;99627.50;5047892;28;20415;-83
2023/09/15 07:57:56;;;;;;;6.15;1.95;;;;;;;23.63;54.97;99622.06;5048492;28;20028;-80
2023/09/15 08:00:21;;;;;;;9.00;1.60;;;;;;;23.78;54.91;99615.63;5048386;28;20029;-83
2023/09/15 08:02:46;;;;;;;4.83;1.90;;;;;;;23.97;54.49;99622.38;5048678;28;20025;-83
2023/09/15 08:05:12;;;;;;;11.38;1.90;;;;;;;24.04;54.00;99636.28;5048832;28;20025;-81
2023/09/15 08:07:37;;;;;;;5.33;1.60;;;;;;;24.18;53.76;99629.91;5048903;28;20120;-82
2023/09/15 08:10:04;;;;;;;9.40;1.90;;;;;;;24.32;53.41;99613.66;5052560;28;20022;-81
2023/09/15 08:12:29;;;;;;;5.85;1.58;;;;;;;24.42;53.21;99623.75;5068475;28;20021;-81
2023/09/15 08:14:55;;;;;;;7.73;1.90;;;;;;;24.56;52.54;99620.91;5060896;28;20530;-81
2023/09/15 08:17:21;;;;;;;7.20;2.47;;;;;;;24.71;51.82;99612.66;5048492;28;20061;-82
2023/09/15 08:19:46;;;;;;;5.73;1.70;;;;;;;24.96;51.43;99608.16;5048356;28;20032;-82
2023/09/15 08:22:13;;;;;;;7.77;1.90;;;;;;;25.17;51.17;99611.94;5051578;28;20490;-80
2023/09/15 08:24:38;;;;;;;7.25;1.70;;;;;;;25.36;50.88;99610.53;5070644;28;20492;-83
2023/09/15 08:27:04;;;;;;;5.03;1.73;;;;;;;25.47;50.44;99604.34;5056316;28;20035;-83
2023/09/15 08:29:29;;;;;;;8.25;1.75;;;;;;;25.51;50.28;99600.44;5051826;28;20078;-83
2023/09/15 08:31:55;;;;;;;6.43;1.83;;;;;;;25.50;49.74;99609.50;5051352;28;20056;-82
2023/09/15 08:34:20;;;;;;;12.80;1.70;;;;;;;25.58;49.83;99593.63;5051926;28;20025;-80
2023/09/15 08:36:46;;;;;;;7.20;1.97;;;;;;;25.55;49.13;99601.06;5052037;28;20434;-80
2023/09/15 08:39:12;;;;;;;6.80;1.70;;;;;;;25.62;49.17;99592.41;5051640;28;20017;-83
2023/09/15 08:41:56;;;;;;;5.97;1.70;;;;;;;25.67;49.01;99586.63;5051854;28;20278;-81
2023/09/15 08:44:23;;;;;;;5.53;2.00;;;;;;;25.78;49.22;99592.03;5051859;28;20110;-83
2023/09/15 08:46:49;;;;;;;4.45;1.70;;;;;;;25.88;49.01;99591.31;5065470;28;20032;-81
2023/09/15 08:49:16;;;;;;;4.45;1.80;;;;;;;25.96;48.90;99579.91;5071363;28;20132;-82
2023/09/15 08:51:43;;;;;;;5.25;2.10;;;;;;;26.02;49.08;99579.41;5070802;28;20062;-80
2023/09/15 08:54:09;;;;;;;4.77;2.00;;;;;;;26.06;48.93;99579.03;5071950;28;20028;-80
2023/09/15 08:56:34;;;;;;;8.00;2.13;;;;;;;26.13;48.56;99576.72;5060407;28;20469;-81
2023/09/15 08:59:01;;;;;;;8.50;1.97;;;;;;;26.19;48.43;99589.75;5051499;28;20641;-81
2023/09/15 09:01:26;;;;;;;5.60;1.80;;;;;;;26.33;48.18;99582.38;5051388;28;20091;-84
2023/09/15 09:03:52;;;;;;;4.50;1.90;;;;;;;26.40;48.59;99569.22;5051305;28;20541;-83
2023/09/15 09:06:18;;;;;;;6.63;2.10;;;;;;;26.53;47.61;99580.75;5051348;28;20102;-80
2023/09/15 09:08:46;;;;;;;8.40;2.05;;;;;;;26.60;47.83;99573.84;5051224;28;20500;-81
2023/09/15 09:11:13;;;;;;;4.97;1.90;;;;;;;26.71;47.49;99567.53;5052700;28;20041;-84
2023/09/15 09:13:39;;;;;;;7.05;2.13;;;;;;;26.87;46.76;99560.91;5051269;28;20603;-81
2023/09/15 09:16:06;;;;;;;6.28;2.05;;;;;;;26.89;46.91;99564.34;5069977;28;20503;-84
2023/09/15 09:18:32;;;;;;;5.93;2.13;;;;;;;26.97;46.47;99564.53;5049620;28;20451;-83
2023/09/15 09:20:57;;;;;;;8.48;2.00;;;;;;;26.97;46.47;99561.00;5071076;28;20028;-82
2023/09/15 09:23:23;;;;;;;6.20;2.17;;;;;;;26.84;46.61;99553.88;5070946;28;20078;-80
2023/09/15 09:25:48;;;;;;;9.33;2.30;;;;;;;26.85;46.81;99566.41;5065551;28;20492;-83
2023/09/15 09:28:14;;;;;;;8.53;2.30;;;;;;;26.85;47.29;99565.59;5050984;28;20032;-80
2023/09/15 09:30:40;;;;;;;7.35;2.58;;;;;;;26.95;47.65;99563.81;5050705;28;20122;-84
2023/09/15 09:33:08;;;;;;;6.80;2.20;;;;;;;27.14;46.99;99560.41;5050671;28;20059;-84
2023/09/15 09:35:34;;;;;;;4.80;2.20;;;;;;;27.03;46.96;99557.75;5050044;28;20117;-84
2023/09/15 09:38:00;;;;;;;5.55;2.13;;;;;;;26.87;47.75;99566.31;5051054;28;20096;-84
2023/09/15 09:40:26;;;;;;;5.88;2.38;;;;;;;26.72;47.58;99563.03;5050685;28;20040;-84
2023/09/15 09:42:52;;;;;;;5.00;2.40;;;;;;;26.50;48.15;99564.78;5050651;28;20025;-84
2023/09/15 09:45:24;;;;;;;4.57;2.40;;;;;;;26.31;48.13;99555.50;5050802;28;20083;-84
2023/09/15 09:47:50;;;;;;;6.57;2.60;;;;;;;26.33;48.69;99548.13;5050653;28;20064;-83
2023/09/15 09:50:15;;;;;;;7.50;2.50;;;;;;;26.43;48.77;99532.03;5050449;28;20469;-85
2023/09/15 09:52:41;;;;;;;6.70;2.50;;;;;;;26.57;49.00;99528.19;5050489;28;20029;-84
2023/09/15 09:55:10;;;;;;;6.23;2.00;;;;;;;26.70;48.52;99519.91;5050799;28;20500;-84
2023/09/15 09:57:39;;;;;;;6.43;2.28;;;;;;;26.85;48.16;99520.50;5070384;28;20471;-85
2023/09/15 10:00:09;;;;;;;7.30;2.03;;;;;;;26.90;48.48;99518.28;5070213;28;20093;-84
2023/09/15 10:02:40;;;;;;;6.15;2.20;;;;;;;26.93;48.27;99507.22;5052263;28;20123;-84
2023/09/15 10:05:06;;;;;;;8.07;2.45;;;;;;;27.01;48.37;99501.16;5070283;28;20059;-84
2023/09/15 10:07:32;;;;;;;6.50;2.43;;;;;;;27.26;47.79;99498.19;5064339;28;20029;-84
2023/09/15 10:09:58;;;;;;;6.75;2.42;;;;;;;27.46;47.87;99500.00;5053668;28;20077;-83
2023/09/15 10:12:24;;;;;;;6.97;2.72;;;;;;;27.70;47.38;99490.75;5070264;28;20032;-83
2023/09/15 10:14:51;;;;;;;8.82;2.08;;;;;;;27.95;47.16;99491.25;5048255;28;20013;-82
2023/09/15 10:17:18;;;;;;;6.90;2.60;;;;;;;28.12;46.73;99483.47;5069947;28;20029;-83
2023/09/15 10:19:47;;;;;;;8.43;2.60;;;;;;;28.31;46.56;99475.41;5069632;28;20028;-84
2023/09/15 10:22:17;;;;;;;5.45;2.20;;;;;;;28.48;46.26;99476.56;5035023;28;20142;-83
2023/09/15 10:24:47;;;;;;;9.57;2.60;;;;;;;28.58;45.34;99476.59;5069869;28;20040;-81
2023/09/15 10:27:14;;;;;;;6.30;2.70;;;;;;;28.33;46.00;99484.22;5053179;28;20431;-82
2023/09/15 10:29:44;;;;;;;7.17;3.07;;;;;;;28.17;46.37;99481.25;5035049;28;20036;-80
2023/09/15 10:32:09;;;;;;;9.10;2.90;;;;;;;28.02;46.92;99473.47;5056365;28;20098;-80
2023/09/15 10:34:36;;;;;;;5.23;2.47;;;;;;;28.01;46.72;99474.47;5056787;28;20040;-81
2023/09/15 10:37:02;;;;;;;11.27;2.93;;;;;;;28.07;46.97;99490.13;5064630;28;20275;-83
2023/09/15 10:39:35;;;;;;;12.38;2.72;;;;;;;27.90;46.99;99478.13;5059684;28;20576;-83
2023/09/15 10:42:05;;;;;;;5.80;2.22;;;;;;;27.69;47.61;99482.75;5049900;28;20066;-82
2023/09/15 10:44:31;;;;;;;6.40;2.60;;;;;;;27.54;47.83;99466.03;5062448;28;20096;-84
2023/09/15 10:46:56;;;;;;;6.77;3.27;;;;;;;27.32;48.02;99467.91;5050013;28;20112;-85
2023/09/15 10:49:22;;;;;;;6.53;2.97;;;;;;;27.27;48.55;99476.44;5060070;28;20025;-83
2023/09/15 10:52:02;;;;;;;7.65;2.90;;;;;;;27.28;49.00;99477.28;5060328;28;20476;-80
2023/09/15 10:54:34;;;;;;;6.80;2.80;;;;;;;27.45;49.21;99464.97;5059203;28;20428;-83
2023/09/15 10:57:01;;;;;;;6.00;2.40;;;;;;;27.67;48.97;99463.97;5056314;28;20124;-82
2023/09/15 10:59:27;;;;;;;5.57;2.80;;;;;;;27.87;48.46;99461.34;5054702;28;20501;-84
2023/09/15 11:01:53;;;;;;;8.68;2.90;;;;;;;28.15;47.79;99456.13;5049199;28;20060;-81
2023/09/15 11:04:22;;;;;;;8.43;2.83;;;;;;;28.46;47.34;99456.03;5050807;28;20041;-82
2023/09/15 11:06:51;;;;;;;9.45;2.72;;;;;;;28.64;47.25;99448.91;5049471;28;20028;-81
2023/09/15 11:09:18;;;;;;;6.90;2.65;;;;;;;28.85;47.09;99442.50;5048980;28;20083;-79
2023/09/15 11:11:47;;;;;;;7.43;2.90;;;;;;;29.01;46.96;99443.75;5067383;28;20040;-82
2023/09/15 11:14:17;;;;;;;6.47;2.60;;;;;;;29.22;46.10;99452.53;5065107;28;20049;-81
2023/09/15 11:16:50;;;;;;;7.63;2.83;;;;;;;29.23;46.24;99445.28;5048768;28;20061;-82
2023/09/15 11:19:17;;;;;;;6.25;2.58;;;;;;;29.35;45.90;99443.25;5030975;28;20025;-81
2023/09/15 11:21:45;;;;;;;5.95;2.60;;;;;;;29.50;45.40;99439.06;5048972;28;20558;-82
2023/09/15 11:24:10;;;;;;;6.60;2.80;;;;;;;29.55;45.28;99424.22;5054262;28;20020;-83
2023/09/15 11:26:43;;;;;;;7.18;2.92;;;;;;;29.69;44.45;99415.56;5056847;28;20036;-88
2023/09/15 11:29:09;;;;;;;6.40;2.42;;;;;;;29.91;43.83;99427.88;5048845;28;20044;-83